createdAt,value
2023-02-20T00:01:34.455Z,8.57
2023-02-20T00:04:01.204Z,8.85
2023-02-20T00:06:27.823Z,9.15
2023-02-20T00:08:54.479Z,8.57
2023-02-20T00:11:21.201Z,9.30
2023-02-20T00:13:49.478Z,8.63
2023-02-20T00:16:16.630Z,9.73
2023-02-20T00:18:44.285Z,9.18
2023-02-20T00:21:10.923Z,9.50
2023-02-20T00:23:37.451Z,9.20
2023-02-20T00:26:04.294Z,8.80
2023-02-20T00:28:30.833Z,9.52
2023-02-20T00:30:58.212Z,9.20
2023-02-20T00:33:25.130Z,8.82
2023-02-20T00:35:51.768Z,9.30
2023-02-20T00:38:19.538Z,8.60
2023-02-20T00:40:46.169Z,9.98
2023-02-20T00:43:13.524Z,9.25
2023-02-20T00:45:40.154Z,9.82
2023-02-20T00:48:07.309Z,9.98
2023-02-20T00:50:33.950Z,9.57
2023-02-20T00:53:00.576Z,9.10
2023-02-20T00:55:27.420Z,9.25
2023-02-20T00:57:55.489Z,9.38
2023-02-20T01:00:29.710Z,9.20
2023-02-20T01:02:56.690Z,9.85
2023-02-20T01:05:24.003Z,10.55
2023-02-20T01:07:52.379Z,9.95
2023-02-20T01:10:18.910Z,9.38
2023-02-20T01:12:45.545Z,9.98
2023-02-20T01:15:15.115Z,9.85
2023-02-20T01:17:41.653Z,9.88
2023-02-20T01:20:08.944Z,10.02
2023-02-20T01:22:35.635Z,9.55
2023-02-20T01:25:02.208Z,9.45
2023-02-20T01:27:28.845Z,8.65
2023-02-20T01:29:55.377Z,9.75
2023-02-20T01:32:22.026Z,9.52
2023-02-20T01:34:48.655Z,9.10
2023-02-20T01:37:16.625Z,9.45
2023-02-20T01:39:43.544Z,9.50
2023-02-20T01:42:20.552Z,10.43
2023-02-20T01:44:47.187Z,9.85
2023-02-20T01:47:19.972Z,9.95
2023-02-20T01:50:03.786Z,9.77
2023-02-20T01:52:33.718Z,9.63
2023-02-20T01:55:17.763Z,10.10
2023-02-20T01:57:51.668Z,10.23
2023-02-20T02:00:21.279Z,9.43
2023-02-20T02:02:55.184Z,11.38
2023-02-20T02:05:23.459Z,11.15
2023-02-20T02:07:54.396Z,10.50
2023-02-20T02:10:26.764Z,10.38
2023-02-20T02:12:54.657Z,10.60
2023-02-20T02:15:23.826Z,10.32
2023-02-20T02:17:59.477Z,9.90
2023-02-20T02:20:56.113Z,10.60
2023-02-20T02:23:52.238Z,9.75
2023-02-20T02:26:31.779Z,9.95
2023-02-20T02:29:20.014Z,9.73
2023-02-20T02:32:21.056Z,9.90
2023-02-20T02:34:56.501Z,9.88
2023-02-20T02:37:50.066Z,9.35
2023-02-20T02:41:02.093Z,9.45
2023-02-20T02:43:37.920Z,9.20
2023-02-20T02:46:16.232Z,10.18
2023-02-20T02:48:52.492Z,10.52
2023-02-20T02:51:25.172Z,10.35
2023-02-20T02:54:06.655Z,10.45
2023-02-20T02:56:38.717Z,10.40
2023-02-20T02:59:07.504Z,10.43
2023-02-20T03:01:39.466Z,10.73
2023-02-20T03:04:09.072Z,10.85
2023-02-20T03:06:45.948Z,11.57
2023-02-20T03:09:25.601Z,11.57
2023-02-20T03:11:55.380Z,12.05
2023-02-20T03:15:06.281Z,14.07
2023-02-20T03:17:38.233Z,13.68
2023-02-20T03:20:16.655Z,12.57
2023-02-20T03:22:57.750Z,14.40
2023-02-20T03:25:39.215Z,14.75
2023-02-20T03:28:16.498Z,15.57
2023-02-20T03:30:49.896Z,16.50
2023-02-20T03:33:42.134Z,17.60
2023-02-20T03:36:32.321Z,16.90
2023-02-20T03:39:21.717Z,18.65
2023-02-20T03:42:08.556Z,17.50
2023-02-20T03:44:38.821Z,17.55
2023-02-20T03:47:09.755Z,18.58
2023-02-20T03:49:40.286Z,18.13
2023-02-20T03:52:09.384Z,18.95
2023-02-20T03:54:41.238Z,17.63
2023-02-20T03:57:15.050Z,18.80
2023-02-20T03:59:56.629Z,18.40
2023-02-20T04:02:28.206Z,18.30
2023-02-20T04:04:58.096Z,18.55
2023-02-20T04:07:30.879Z,18.35
2023-02-20T04:10:02.224Z,18.17
2023-02-20T04:12:36.537Z,17.88
2023-02-20T04:15:05.020Z,18.00
2023-02-20T04:17:39.027Z,18.42
2023-02-20T04:20:06.389Z,20.63
2023-02-20T04:22:42.030Z,17.88
2023-02-20T04:25:34.286Z,19.20
2023-02-20T04:28:05.774Z,17.20
2023-02-20T04:30:43.642Z,18.73
2023-02-20T04:33:12.600Z,17.77
2023-02-20T04:35:40.673Z,18.27
2023-02-20T04:38:09.051Z,19.50
2023-02-20T04:40:37.116Z,17.27
2023-02-20T04:43:03.955Z,18.90
2023-02-20T04:45:30.798Z,18.33
2023-02-20T04:47:57.547Z,18.00
2023-02-20T04:50:33.493Z,18.92
2023-02-20T04:53:01.973Z,18.85
2023-02-20T04:55:29.154Z,18.00
2023-02-20T04:57:59.746Z,19.00
2023-02-20T05:00:31.301Z,18.52
2023-02-20T05:02:58.242Z,19.05
2023-02-20T05:05:27.239Z,19.50
2023-02-20T05:07:59.303Z,19.27
2023-02-20T05:10:27.578Z,18.27
2023-02-20T05:12:56.365Z,19.55
2023-02-20T05:15:23.318Z,19.02
2023-02-20T05:17:50.046Z,18.85
2023-02-20T05:20:18.224Z,18.60
2023-02-20T05:22:48.400Z,18.90
2023-02-20T05:25:15.685Z,19.35
2023-02-20T05:27:42.646Z,19.73
2023-02-20T05:30:10.476Z,19.83
2023-02-20T05:32:37.767Z,20.83
2023-02-20T05:35:04.694Z,20.58
2023-02-20T05:37:33.381Z,20.25
2023-02-20T05:40:00.224Z,21.00
2023-02-20T05:42:27.060Z,21.08
2023-02-20T05:44:53.900Z,20.33
2023-02-20T05:47:20.598Z,22.25
2023-02-20T05:49:47.377Z,21.40
2023-02-20T05:52:14.015Z,21.63
2023-02-20T05:54:41.783Z,21.38
2023-02-20T05:57:11.403Z,21.35
2023-02-20T05:59:38.020Z,21.52
2023-02-20T06:02:04.863Z,23.10
2023-02-20T06:04:31.843Z,21.58
2023-02-20T06:06:58.563Z,22.88
2023-02-20T06:09:25.232Z,23.60
2023-02-20T06:11:56.536Z,23.67
2023-02-20T06:14:25.524Z,23.73
2023-02-20T06:16:52.159Z,23.00
2023-02-20T06:19:24.550Z,21.17
2023-02-20T06:21:53.638Z,23.42
2023-02-20T06:24:21.075Z,24.45
2023-02-20T06:26:47.714Z,22.60
2023-02-20T06:29:15.696Z,24.73
2023-02-20T06:31:42.535Z,23.58
2023-02-20T06:34:09.877Z,23.98
2023-02-20T06:36:40.511Z,23.02
2023-02-20T06:39:08.787Z,24.23
2023-02-20T06:41:35.716Z,25.23
2023-02-20T06:44:02.575Z,24.67
2023-02-20T06:46:29.326Z,24.90
2023-02-20T06:48:58.318Z,23.92
2023-02-20T06:51:27.958Z,25.65
2023-02-20T06:53:54.853Z,26.35
2023-02-20T06:56:24.976Z,26.23
2023-02-20T06:58:52.638Z,25.48
2023-02-20T07:01:22.246Z,25.90
2023-02-20T07:03:50.214Z,26.98
2023-02-20T07:06:17.419Z,27.48
2023-02-20T07:08:44.192Z,26.23
2023-02-20T07:11:11.657Z,26.60
2023-02-20T07:13:38.291Z,26.17
2023-02-20T07:16:05.312Z,27.27
2023-02-20T07:18:32.093Z,27.00
2023-02-20T07:20:58.603Z,24.80
2023-02-20T07:23:25.320Z,27.38
2023-02-20T07:25:52.284Z,26.80
2023-02-20T07:28:19.846Z,27.90
2023-02-20T07:30:49.039Z,24.67
2023-02-20T07:33:16.902Z,25.42
2023-02-20T07:35:43.745Z,24.85
2023-02-20T07:38:10.380Z,24.88
2023-02-20T07:40:38.949Z,24.20
2023-02-20T07:43:06.639Z,25.58
2023-02-20T07:45:39.294Z,23.73
2023-02-20T07:48:06.155Z,27.15
2023-02-20T07:50:33.807Z,27.00
2023-02-20T07:53:00.553Z,25.35
2023-02-20T07:55:27.175Z,24.65
2023-02-20T07:57:57.915Z,26.23
2023-02-20T08:00:26.700Z,27.23
2023-02-20T08:02:53.643Z,26.05
2023-02-20T08:05:20.347Z,26.42
2023-02-20T08:07:48.425Z,26.70
2023-02-20T08:10:17.131Z,25.85
2023-02-20T08:12:44.282Z,27.35
2023-02-20T08:15:12.312Z,26.30
2023-02-20T08:17:47.006Z,27.05
2023-02-20T08:20:17.091Z,26.05
2023-02-20T08:22:47.924Z,25.50
2023-02-20T08:25:16.306Z,24.27
2023-02-20T08:27:47.857Z,26.10
2023-02-20T08:30:26.002Z,25.63
2023-02-20T08:32:53.496Z,24.75
2023-02-20T08:35:20.871Z,25.55
2023-02-20T08:37:47.826Z,25.42
2023-02-20T08:40:14.757Z,24.95
2023-02-20T08:42:41.509Z,24.42
2023-02-20T08:45:09.375Z,26.00
2023-02-20T08:47:36.274Z,25.65
2023-02-20T08:50:03.660Z,24.08
2023-02-20T08:52:30.192Z,25.20
2023-02-20T08:54:57.037Z,24.67
2023-02-20T08:57:23.673Z,23.65
2023-02-20T08:59:50.203Z,23.92
2023-02-20T09:02:19.652Z,25.13
2023-02-20T09:04:47.086Z,25.05
2023-02-20T09:07:14.213Z,24.08
2023-02-20T09:09:41.362Z,22.33
2023-02-20T09:12:08.608Z,26.17
2023-02-20T09:14:36.065Z,25.10
2023-02-20T09:17:02.604Z,24.15
2023-02-20T09:19:29.406Z,24.25
2023-02-20T09:21:56.174Z,25.63
2023-02-20T09:24:22.812Z,25.38
2023-02-20T09:26:49.650Z,25.73
2023-02-20T09:29:16.185Z,26.40
2023-02-20T09:31:43.035Z,26.63
2023-02-20T09:34:09.690Z,25.25
2023-02-20T09:36:36.402Z,24.67
2023-02-20T09:39:03.038Z,24.95
2023-02-20T09:42:08.395Z,25.85
2023-02-20T09:44:44.340Z,25.45
2023-02-20T09:47:32.472Z,26.27
2023-02-20T09:50:11.156Z,26.33
2023-02-20T09:52:41.019Z,26.55
2023-02-20T09:55:13.279Z,27.45
2023-02-20T09:57:41.549Z,27.98
2023-02-20T10:00:21.916Z,25.92
2023-02-20T10:02:59.817Z,27.45
2023-02-20T10:05:29.521Z,27.08
2023-02-20T10:07:56.384Z,28.40
2023-02-20T10:10:29.749Z,27.40
2023-02-20T10:13:24.550Z,27.35
2023-02-20T10:16:12.905Z,27.98
2023-02-20T10:18:53.252Z,26.77
2023-02-20T10:21:44.362Z,27.17
2023-02-20T10:24:28.409Z,26.00
2023-02-20T10:27:10.508Z,27.45
2023-02-20T10:29:39.505Z,27.98
2023-02-20T10:32:10.781Z,30.08
2023-02-20T10:34:44.964Z,27.17
2023-02-20T10:37:20.683Z,26.15
2023-02-20T10:40:00.052Z,26.67
2023-02-20T10:42:38.674Z,26.48
2023-02-20T10:45:12.672Z,26.30
2023-02-20T10:47:54.876Z,26.65
2023-02-20T10:50:44.037Z,27.25
2023-02-20T10:53:33.814Z,26.23
2023-02-20T10:56:09.357Z,24.73
2023-02-20T10:58:42.444Z,26.55
2023-02-20T11:01:20.832Z,28.10
2023-02-20T11:03:55.790Z,28.50
2023-02-20T11:06:29.492Z,27.92
2023-02-20T11:08:58.559Z,28.35
2023-02-20T11:11:42.149Z,26.75
2023-02-20T11:14:15.624Z,28.75
2023-02-20T11:17:03.357Z,27.02
2023-02-20T11:19:49.368Z,26.98
2023-02-20T11:22:18.020Z,28.50
2023-02-20T11:24:46.499Z,28.55
2023-02-20T11:27:22.557Z,29.00
2023-02-20T11:29:49.498Z,29.20
2023-02-20T11:32:22.595Z,29.27
2023-02-20T11:35:12.065Z,27.88
2023-02-20T11:37:52.806Z,28.13
2023-02-20T11:40:34.025Z,28.52
2023-02-20T11:43:11.089Z,29.25
2023-02-20T11:45:38.238Z,29.25
2023-02-20T11:48:11.126Z,29.63
2023-02-20T11:50:42.160Z,30.38
2023-02-20T11:53:20.274Z,28.70
2023-02-20T11:55:58.640Z,30.10
2023-02-20T11:58:28.551Z,29.88
2023-02-20T12:00:55.740Z,31.27
2023-02-20T12:03:32.617Z,30.88
2023-02-20T12:06:00.835Z,31.75
2023-02-20T12:08:50.049Z,31.92
2023-02-20T12:11:21.912Z,31.50
2023-02-20T12:13:52.947Z,31.50
2023-02-20T12:16:50.506Z,31.50
2023-02-20T12:19:39.163Z,31.73
2023-02-20T12:22:22.491Z,30.83
2023-02-20T12:24:51.892Z,31.67
2023-02-20T12:27:26.509Z,32.88
2023-02-20T12:30:02.468Z,31.40
2023-02-20T12:32:54.603Z,33.63
2023-02-20T12:35:26.870Z,31.80
2023-02-20T12:37:59.244Z,32.13
2023-02-20T12:40:35.507Z,31.50
2023-02-20T12:43:18.938Z,32.67
2023-02-20T12:46:01.748Z,31.13
2023-02-20T12:48:43.539Z,30.48
2023-02-20T12:51:25.435Z,31.98
2023-02-20T12:54:26.887Z,32.88
2023-02-20T12:57:12.062Z,32.63
2023-02-20T13:00:12.112Z,31.48
2023-02-20T13:02:48.406Z,31.42
2023-02-20T13:05:20.611Z,31.55
2023-02-20T13:07:52.776Z,32.08
2023-02-20T13:10:27.402Z,32.45
2023-02-20T13:12:54.446Z,31.35
2023-02-20T13:15:50.677Z,29.30
2023-02-20T13:21:14.770Z,31.25
2023-02-20T13:23:42.341Z,31.65
2023-02-20T13:26:36.405Z,31.95
2023-02-20T13:29:16.253Z,30.92
2023-02-20T13:32:22.481Z,31.33
2023-02-20T13:34:50.876Z,27.67
2023-02-20T13:37:38.011Z,26.35
2023-02-20T13:40:27.521Z,26.60
2023-02-20T13:43:12.673Z,25.73
2023-02-20T13:45:45.085Z,27.63
2023-02-20T13:48:19.803Z,27.50
2023-02-20T13:50:47.759Z,20.65
2023-02-20T13:53:17.088Z,19.25
2023-02-20T13:55:47.956Z,18.75
2023-02-20T13:58:17.358Z,17.95
2023-02-20T14:00:55.529Z,19.55
2023-02-20T14:03:31.179Z,18.45
2023-02-20T14:06:19.862Z,16.63
2023-02-20T14:08:49.525Z,14.40
2023-02-20T14:11:31.570Z,14.98
2023-02-20T14:14:04.758Z,15.93
2023-02-20T14:16:40.237Z,15.63
2023-02-20T14:19:26.125Z,16.80
2023-02-20T14:21:54.726Z,16.33
2023-02-20T14:24:32.382Z,15.70
2023-02-20T14:27:06.854Z,16.05
2023-02-20T14:29:36.792Z,16.83
2023-02-20T14:32:06.687Z,21.92
2023-02-20T14:34:47.685Z,28.15
2023-02-20T14:37:56.821Z,32.47
2023-02-20T14:40:40.097Z,32.65
2023-02-20T14:43:28.285Z,29.67
2023-02-20T14:46:03.445Z,29.60
2023-02-20T14:48:40.148Z,26.73
2023-02-20T14:51:16.550Z,25.73
2023-02-20T14:53:57.224Z,22.00
2023-02-20T14:56:24.690Z,18.50
2023-02-20T14:58:52.506Z,19.17
2023-02-20T15:01:31.284Z,18.90
2023-02-20T15:04:15.890Z,17.35
2023-02-20T15:06:45.981Z,18.75
2023-02-20T15:09:22.353Z,18.73
2023-02-20T15:11:58.123Z,19.42
2023-02-20T15:14:32.785Z,20.00
2023-02-20T15:17:27.231Z,22.00
2023-02-20T15:19:57.577Z,22.95
2023-02-20T15:22:26.586Z,22.65
2023-02-20T15:25:22.125Z,23.35
2023-02-20T15:28:11.265Z,24.15
2023-02-20T15:31:00.978Z,24.00
2023-02-20T15:33:33.412Z,24.92
2023-02-20T15:36:01.996Z,23.10
2023-02-20T15:38:33.343Z,21.55
2023-02-20T15:41:02.730Z,20.20
2023-02-20T15:43:50.713Z,20.92
2023-02-20T15:46:20.132Z,19.73
2023-02-20T15:48:48.355Z,17.55
2023-02-20T15:51:21.984Z,18.63
2023-02-20T15:53:53.198Z,16.92
2023-02-20T15:56:21.051Z,15.05
2023-02-20T15:58:49.459Z,14.65
2023-02-20T16:01:18.152Z,14.73
2023-02-20T16:03:53.026Z,13.98
2023-02-20T16:06:25.226Z,14.75
2023-02-20T16:08:55.040Z,14.52
2023-02-20T16:11:25.458Z,15.13
2023-02-20T16:14:00.543Z,16.45
2023-02-20T16:16:35.398Z,16.85
2023-02-20T16:19:04.305Z,18.20
2023-02-20T16:21:32.137Z,17.48
2023-02-20T16:23:58.921Z,18.08
2023-02-20T16:26:33.045Z,18.75
2023-02-20T16:29:06.013Z,21.45
2023-02-20T16:32:00.884Z,21.42
2023-02-20T16:34:31.570Z,24.40
2023-02-20T16:36:59.304Z,24.33
2023-02-20T16:39:32.909Z,23.45
2023-02-20T16:42:18.895Z,22.08
2023-02-20T16:44:48.511Z,20.80
2023-02-20T16:47:23.141Z,20.00
2023-02-20T16:49:54.441Z,18.98
2023-02-20T16:52:26.959Z,19.33
2023-02-20T16:54:56.050Z,17.95
2023-02-20T16:57:24.088Z,15.90
2023-02-20T16:59:58.123Z,16.42
2023-02-20T17:02:28.689Z,15.98
2023-02-20T17:04:56.549Z,15.75
2023-02-20T17:07:40.735Z,16.67
2023-02-20T17:12:50.427Z,16.25
2023-02-20T17:15:20.642Z,18.75
2023-02-20T17:19:38.478Z,18.27
2023-02-20T17:21:28.368Z,21.67
2023-02-20T17:24:03.994Z,21.50
2023-02-20T17:26:36.478Z,23.67
2023-02-20T17:29:05.879Z,24.08
2023-02-20T17:31:37.066Z,26.02
2023-02-20T17:34:05.962Z,26.83
2023-02-20T17:40:30.523Z,30.13
2023-02-20T17:43:17.632Z,29.85
2023-02-20T17:46:16.794Z,29.90
2023-02-20T17:48:48.191Z,24.00
2023-02-20T17:51:20.455Z,21.92
2023-02-20T17:53:47.806Z,22.05
2023-02-20T17:56:16.801Z,20.08
2023-02-20T17:58:47.517Z,19.05
2023-02-20T18:01:14.210Z,17.67
2023-02-20T18:03:40.860Z,18.63
2023-02-20T18:06:07.975Z,20.10
2023-02-20T18:08:34.692Z,18.55
2023-02-20T18:11:01.844Z,19.30
2023-02-20T18:13:28.680Z,20.10
2023-02-20T18:15:55.312Z,21.15
2023-02-20T18:18:22.269Z,22.73
2023-02-20T18:20:48.930Z,22.85
2023-02-20T18:23:15.519Z,25.25
2023-02-20T18:25:42.065Z,25.60
2023-02-20T18:28:09.415Z,30.30
2023-02-20T18:30:36.272Z,30.17
2023-02-20T18:33:02.997Z,29.05
2023-02-20T18:35:29.637Z,29.92
2023-02-20T18:37:56.276Z,31.45
2023-02-20T18:40:24.197Z,30.95
2023-02-20T18:42:51.595Z,33.53
2023-02-20T18:45:18.739Z,34.70
2023-02-20T18:47:50.602Z,33.90
2023-02-20T18:50:18.260Z,35.92
2023-02-20T18:52:47.063Z,36.50
2023-02-20T18:55:17.884Z,38.20
2023-02-20T18:57:46.165Z,37.67
2023-02-20T19:00:16.690Z,37.70
2023-02-20T19:02:43.526Z,37.78
2023-02-20T19:05:10.393Z,37.90
2023-02-20T19:07:41.097Z,36.50
2023-02-20T19:10:07.940Z,38.47
2023-02-20T19:12:34.744Z,38.90
2023-02-20T19:15:04.594Z,39.47
2023-02-20T19:17:31.918Z,39.40
2023-02-20T19:19:58.890Z,38.28
2023-02-20T19:22:25.549Z,37.58
2023-02-20T19:24:52.422Z,35.88
2023-02-20T19:27:19.104Z,35.88
2023-02-20T19:29:45.946Z,32.78
2023-02-20T19:32:12.734Z,34.30
2023-02-20T19:34:39.429Z,34.20
2023-02-20T19:37:06.164Z,34.42
2023-02-20T19:39:32.867Z,35.03
2023-02-20T19:41:59.647Z,34.90
2023-02-20T19:44:26.285Z,36.38
2023-02-20T19:46:53.228Z,37.88
2023-02-20T19:49:21.092Z,37.95
2023-02-20T19:51:49.774Z,37.17
2023-02-20T19:54:18.251Z,36.53
2023-02-20T19:56:53.084Z,37.00
2023-02-20T19:59:20.238Z,36.05
2023-02-20T20:01:48.815Z,36.55
2023-02-20T20:04:15.653Z,34.95
2023-02-20T20:06:42.397Z,35.08
2023-02-20T20:09:15.098Z,34.83
2023-02-20T20:11:43.346Z,35.22
2023-02-20T20:14:10.084Z,34.10
2023-02-20T20:16:42.165Z,34.72
2023-02-20T20:19:10.229Z,34.58
2023-02-20T20:21:37.335Z,36.08
2023-02-20T20:24:07.176Z,36.33
2023-02-20T20:26:34.839Z,35.97
2023-02-20T20:29:01.941Z,35.25
2023-02-20T20:31:34.677Z,37.40
2023-02-20T20:34:01.606Z,34.33
2023-02-20T20:36:28.141Z,34.22
2023-02-20T20:38:54.985Z,35.42
2023-02-20T20:41:21.615Z,35.00
2023-02-20T20:43:48.270Z,33.53
2023-02-20T20:46:16.483Z,34.30
2023-02-20T20:48:44.497Z,35.88
2023-02-20T20:51:16.186Z,33.58
2023-02-20T20:53:44.422Z,32.83
2023-02-20T20:56:12.613Z,33.70
2023-02-20T20:58:39.754Z,34.35
2023-02-20T21:01:06.618Z,32.03
2023-02-20T21:03:33.235Z,33.33
2023-02-20T21:06:01.092Z,32.53
2023-02-20T21:08:38.169Z,32.60
2023-02-20T21:11:09.357Z,32.25
2023-02-20T21:13:36.150Z,32.47
2023-02-20T21:16:02.801Z,30.15
2023-02-20T21:18:29.432Z,30.27
2023-02-20T21:20:56.062Z,30.23
2023-02-20T21:23:22.703Z,30.77
2023-02-20T21:25:49.334Z,30.48
2023-02-20T21:28:15.969Z,29.52
2023-02-20T21:30:42.789Z,32.03
2023-02-20T21:33:09.525Z,32.53
2023-02-20T21:35:36.114Z,32.03
2023-02-20T21:38:02.722Z,31.60
2023-02-20T21:40:29.364Z,33.15
2023-02-20T21:43:14.526Z,34.22
2023-02-20T21:45:41.168Z,34.35
2023-02-20T21:48:07.814Z,33.25
2023-02-20T21:50:34.440Z,33.95
2023-02-20T21:53:02.121Z,32.60
2023-02-20T21:55:29.556Z,34.38
2023-02-20T21:57:56.505Z,35.30
2023-02-20T22:00:23.342Z,34.65
2023-02-20T22:02:49.905Z,38.00
2023-02-20T22:05:16.613Z,38.90
2023-02-20T22:08:01.483Z,40.55
2023-02-20T22:10:46.648Z,38.43
2023-02-20T22:13:31.925Z,39.63
2023-02-20T22:16:17.363Z,37.47
2023-02-20T22:19:02.569Z,40.03
2023-02-20T22:21:47.841Z,39.40
2023-02-20T22:24:38.650Z,40.33
2023-02-20T22:27:30.074Z,37.72
2023-02-20T22:30:15.408Z,40.75
2023-02-20T22:33:00.846Z,39.17
2023-02-20T22:35:45.886Z,39.78
2023-02-20T22:38:31.162Z,38.73
2023-02-20T22:41:16.433Z,38.95
2023-02-20T22:44:01.828Z,38.33
2023-02-20T22:46:46.815Z,38.38
2023-02-20T22:49:32.274Z,38.60
2023-02-20T22:52:17.430Z,38.25
2023-02-20T22:55:06.214Z,38.45
2023-02-20T22:57:52.168Z,39.83
2023-02-20T23:00:38.185Z,38.47
2023-02-20T23:03:23.279Z,38.22
2023-02-20T23:06:17.349Z,39.13
2023-02-20T23:09:05.484Z,39.03
2023-02-20T23:11:52.881Z,39.22
2023-02-20T23:14:38.794Z,39.45
2023-02-20T23:17:34.980Z,38.05
2023-02-20T23:20:26.512Z,38.97
2023-02-20T23:23:12.209Z,39.58
2023-02-20T23:25:57.568Z,39.72
2023-02-20T23:28:43.254Z,38.90
2023-02-20T23:31:28.544Z,38.85
2023-02-20T23:34:13.997Z,39.50
2023-02-20T23:37:04.654Z,39.83
2023-02-20T23:39:49.865Z,39.80
2023-02-20T23:42:36.780Z,39.15
2023-02-20T23:45:23.008Z,37.53
2023-02-20T23:48:08.345Z,38.70
2023-02-20T23:50:53.738Z,40.55
2023-02-20T23:53:41.868Z,38.80
2023-02-20T23:56:27.136Z,40.35
2023-02-20T23:59:12.345Z,41.53
